Forest fire From: 19-07-2018 20:00 Until: 20-07-2018 16:00 warning for: Forest fire Level: Yellow info button
suomi:
Metsäpalovaroitus on voimassa.

svenska:
Varning för skogsbrand gäller.

english:
A forest fire warning is in force. 

Extreme high temperature From: 19-07-2018 20:00 Until: 23:00 warning for: Extreme high temperature Level: Yellow info button
suomi:
Hellevaroitus: Lähivuorokauden aikana on odotettavissa tukalaa hellettä.

svenska:
Varning för värmebölja: Under det närmaste dygnet är den svåra hettan att vänta.

english:
Heat wave warning: Warm weather is expected during the coming 24 hours. 


Thunder radar more information blitzortung!


Löydät sääaseman tiedot myös:

European Weather Network

Finland Weather Exchange

Weather Underground

AWEKAS



Weather Underground säähistoriasivu

Päivittäin yhteenveto Maaliskuu 29, 2017 Yksiköt:  Metriset    Englantilaiset   Molemmat
« Edellinen Päivä
Seuraava Päivä »
Päivittäin Viikoittain Kuukausittain Vuosittain Mukautettu
  Korkea: Matala: Keskiarvo:
Lämpötila: -17.8 °C -21.6 °C -18.8 °C
Kastepiste: -17.8 °C -23.7 °C -21.9 °C
Kosteus: Humidity % 39 % 67 %
Tuulen nopeus: 0 km/h 0 km/h 4.7 km/h
Tuulenpuuska: 0 km/h - -
Tuuli:- - NW
Ilmanpaine: 0 hPa 34293.4 hPa -
Sade: 0 mm    
Historical Graphs
 
 
Taulukkotiedot Maaliskuu 29, 2017
Aika Lämpötila Kastepiste Ilmanpaine Tuuli Tuulen nopeus Tuulenpuuska Kosteus Sademäärä (tunneittain)
-17.8 °C -17.8 °C 0 hPa Calm     Humidity % 0 mm
00:00 -20.1 °C -21.9 °C 34293.4 hPa NW 2.6 km/h 15.6 km/h 77 % 0 mm
00:15 -20.2 °C -22.1 °C 34293.4 hPa Calm   10.3 km/h 77 % 0 mm
00:30 -20.3 °C -22.1 °C 34293.4 hPa Calm   5.1 km/h 78 % 0 mm
00:45 -20.4 °C -22.1 °C 34293.4 hPa Calm   7.7 km/h 79 % 0 mm
01:00 -20.2 °C -22 °C 34293.4 hPa NW 2.6 km/h 18.2 km/h 78 % 0 mm
01:15 -19.9 °C -21.9 °C 34293.4 hPa NW 5.1 km/h 15.6 km/h 76 % 0 mm
01:30 -19.8 °C -21.8 °C 34293.4 hPa NW 5.1 km/h 18.2 km/h 75 % 0 mm
01:45 -19.6 °C -21.9 °C 34293.4 hPa NW 7.7 km/h 18.2 km/h 73 % 0 mm
02:00 -19.4 °C -21.8 °C 34303.6 hPa NW 10.3 km/h 20.8 km/h 72 % 0 mm
02:15 -19.3 °C -21.8 °C 34303.6 hPa NW 10.3 km/h 20.8 km/h 72 % 0 mm
02:30 -19.2 °C -21.8 °C 34303.6 hPa NW 12.9 km/h 25.9 km/h 70 % 0 mm
02:45 -19.1 °C -22 °C 34303.6 hPa NW 7.7 km/h 23.3 km/h 67 % 0 mm
03:00 -18.8 °C -21.8 °C 34303.6 hPa NW 5.1 km/h 12.9 km/h 67 % 0 mm
03:15 -18.7 °C -21.8 °C 34303.6 hPa NW 5.1 km/h 18.2 km/h 66 % 0 mm
03:30 -18.5 °C -21.9 °C 34303.6 hPa NW 5.1 km/h 15.6 km/h 63 % 0 mm
03:45 -18.2 °C -22.3 °C 34303.6 hPa WNW 5.1 km/h 18.2 km/h 58 % 0 mm
04:00 -18.1 °C -22.1 °C 34303.6 hPa NNW 7.7 km/h 18.2 km/h 58 % 0 mm
04:15 -17.9 °C -22.6 °C 34303.6 hPa WNW 7.7 km/h 20.8 km/h 53 % 0 mm
04:30 -17.8 °C -22.6 °C 34303.6 hPa NW 10.3 km/h 20.8 km/h 52 % 0 mm
04:45 -17.6 °C -22.7 °C 34303.6 hPa NW 5.1 km/h 18.2 km/h 50 % 0 mm
05:00 -17.4 °C -22.7 °C 34303.6 hPa WNW 7.7 km/h 25.9 km/h 49 % 0 mm
05:15 -17.4 °C -22.7 °C 34313.7 hPa NW 10.3 km/h 23.3 km/h 49 % 0 mm
05:30 -17.2 °C -22.8 °C 34313.7 hPa NW 5.1 km/h 18.2 km/h 47 % 0 mm
05:45 -17.1 °C -22.8 °C 34313.7 hPa NNW 5.1 km/h 25.9 km/h 46 % 0 mm
06:00 -17.1 °C -22.8 °C 34313.7 hPa NW 7.7 km/h 23.3 km/h 46 % 0 mm
06:15 -17 °C -23.1 °C 34303.6 hPa NW 12.9 km/h 28.5 km/h 44 % 0 mm
06:30 -17.1 °C -23.7 °C 34303.6 hPa NW 12.9 km/h 31.1 km/h 41 % 0 mm
06:45 -17 °C -23.6 °C 34303.6 hPa NW 10.3 km/h 28.5 km/h 41 % 0 mm
07:00 -16.9 °C -23.5 °C 34303.6 hPa NW 10.3 km/h 25.9 km/h 41 % 0 mm
07:15 -16.9 °C -23.3 °C 34303.6 hPa NNW 7.7 km/h 23.3 km/h 42 % 0 mm
07:30 -16.8 °C -23.2 °C 34303.6 hPa WNW 7.7 km/h 33.6 km/h 42 % 0 mm
07:45 -16.6 °C -23.6 °C 34303.6 hPa WNW 10.3 km/h 23.3 km/h 39 % 0 mm
08:00 -16.6 °C -23 °C 34303.6 hPa NW 7.7 km/h 23.3 km/h 42 % 0 mm
08:15 -16.7 °C -23.1 °C 34303.6 hPa WNW 10.3 km/h 28.5 km/h 42 % 0 mm
08:30 -16.9 °C -23.2 °C 34303.6 hPa WNW 10.3 km/h 31.1 km/h 43 % 0 mm
08:45 -17 °C -22.9 °C 34293.4 hPa West 10.3 km/h 25.9 km/h 45 % 0 mm
09:00 -17.1 °C -22.5 °C 34303.6 hPa WNW 10.3 km/h 25.9 km/h 48 % 0 mm
09:15 -17.1 °C -22.7 °C 34303.6 hPa NW 7.7 km/h 41.4 km/h 47 % 0 mm
09:30 -17.3 °C -22.6 °C 34303.6 hPa NW 12.9 km/h 31.1 km/h 49 % 0 mm
09:45 -17.4 °C -22.7 °C 34303.6 hPa NW 10.3 km/h 25.9 km/h 49 % 0 mm
10:00 -17.3 °C -22.4 °C 34303.6 hPa NW 10.3 km/h 25.9 km/h 50 % 0 mm
10:15 -17.4 °C -22.7 °C 34303.6 hPa NW 12.9 km/h 28.5 km/h 49 % 0 mm
10:30 -17.4 °C -22.4 °C 34303.6 hPa NW 12.9 km/h 28.5 km/h 51 % 0 mm
10:45 -17.5 °C -22.2 °C 34303.6 hPa NW 12.9 km/h 23.3 km/h 53 % 0 mm
11:00 -17.6 °C -23.1 °C 34313.7 hPa NW 10.3 km/h 25.9 km/h 47 % 0 mm
11:15 -17.7 °C -22.8 °C 34313.7 hPa NW 12.9 km/h 28.5 km/h 50 % 0 mm
11:30 -17.7 °C -22.6 °C 34313.7 hPa NW 5.1 km/h 23.3 km/h 52 % 0 mm
11:45 -17.9 °C -22.7 °C 34313.7 hPa NW 10.3 km/h 20.8 km/h 52 % 0 mm
12:00 -17.9 °C -22.6 °C 34327.3 hPa NW 10.3 km/h 20.8 km/h 53 % 0 mm
12:15 -17.9 °C -22.6 °C 34327.3 hPa NW 7.7 km/h 25.9 km/h 53 % 0 mm
12:30 -18 °C -22.6 °C 34327.3 hPa NW 7.7 km/h 18.2 km/h 54 % 0 mm
12:45 -18.2 °C -22.6 °C 34337.4 hPa NW 5.1 km/h 15.6 km/h 55 % 0 mm
13:00 -18.3 °C -22.6 °C 34337.4 hPa NW 2.6 km/h 10.3 km/h 56 % 0 mm
13:15 -18.5 °C -22.5 °C 34347.6 hPa Calm   7.7 km/h 58 % 0 mm
13:30 -18.6 °C -22.4 °C 34347.6 hPa Calm   5.1 km/h 60 % 0 mm
13:45 -18.8 °C -22.3 °C 34361.1 hPa Calm   7.7 km/h 62 % 0 mm
14:00 -18.8 °C -22.3 °C 34371.3 hPa WNW 2.6 km/h 7.7 km/h 63 % 0 mm
14:15 -19 °C -22.1 °C 34384.8 hPa Calm   5.1 km/h 66 % 0 mm
14:30 -19.1 °C -22 °C 34384.8 hPa WNW 2.6 km/h 10.3 km/h 67 % 0 mm
14:45 -19.1 °C -21.6 °C 34384.8 hPa WNW 2.6 km/h 12.9 km/h 71 % 0 mm
15:00 -19.2 °C -21.5 °C 34395 hPa Calm   7.7 km/h 73 % 0 mm
15:15 -19.3 °C -21.6 °C 34395 hPa Calm   10.3 km/h 74 % 0 mm
15:30 -19.5 °C -21.4 °C 34405.1 hPa Calm   7.7 km/h 77 % 0 mm
15:45 -19.6 °C -21.3 °C 34405.1 hPa Calm   7.7 km/h 79 % 0 mm
16:00 -19.6 °C -21.2 °C 34405.1 hPa Calm   5.1 km/h 81 % 0 mm
16:15 -19.7 °C -21.2 °C 34405.1 hPa Calm   7.7 km/h 82 % 0 mm
16:30 -19.7 °C -21 °C 34405.1 hPa Calm   5.1 km/h 84 % 0 mm
16:45 -19.8 °C -21.1 °C 34418.7 hPa Calm   5.1 km/h 85 % 0 mm
17:00 -19.9 °C -21 °C 34418.7 hPa Calm   2.6 km/h 86 % 0 mm
17:15 -19.9 °C -20.9 °C 34418.7 hPa Calm   5.1 km/h 87 % 0 mm
17:30 -19.8 °C -20.8 °C 34428.8 hPa WNW 2.6 km/h 12.9 km/h 88 % 0 mm
17:45 -19.8 °C -20.7 °C 34428.8 hPa Calm   15.6 km/h 88 % 0 mm
18:00 -19.7 °C -20.6 °C 34428.8 hPa West 2.6 km/h 12.9 km/h 89 % 0 mm
18:15 -19.6 °C -20.3 °C 34442.4 hPa West 2.6 km/h 12.9 km/h 90 % 0 mm
18:30 -19.5 °C -20.3 °C 34442.4 hPa West 5.1 km/h 18.2 km/h 90 % 0 mm
18:45 -19.5 °C -20.3 °C 34452.6 hPa WNW 5.1 km/h 15.6 km/h 90 % 0 mm
19:00 -19.6 °C -20.3 °C 34452.6 hPa WNW 2.6 km/h 12.9 km/h 90 % 0 mm
19:15 -19.6 °C -20.4 °C 34452.6 hPa WNW 2.6 km/h 10.3 km/h 90 % 0 mm
19:30 -19.7 °C -20.5 °C 34452.6 hPa Calm   10.3 km/h 90 % 0 mm
19:45 -19.8 °C -20.6 °C 34462.7 hPa Calm   10.3 km/h 90 % 0 mm
20:00 -19.9 °C -20.7 °C 34462.7 hPa Calm   10.3 km/h 90 % 0 mm
20:15 -19.9 °C -20.7 °C 34462.7 hPa Calm   7.7 km/h 90 % 0 mm
20:30 -20 °C -20.8 °C 34462.7 hPa WNW 2.6 km/h 10.3 km/h 89 % 0 mm
20:45 -20.2 °C -21.1 °C 34476.3 hPa Calm   2.6 km/h 88 % 0 mm
21:00 -20.3 °C -21.2 °C 34476.3 hPa Calm     88 % 0 mm
21:15 -20.4 °C -21.3 °C 34476.3 hPa Calm     88 % 0 mm
21:30 -20.5 °C -21.4 °C 34476.3 hPa Calm   2.6 km/h 88 % 0 mm
21:45 -20.6 °C -21.5 °C 34476.3 hPa Calm   5.1 km/h 88 % 0 mm
22:00 -20.7 °C -21.6 °C 34486.4 hPa Calm     88 % 0 mm
22:15 -20.8 °C -21.7 °C 34486.4 hPa Calm     88 % 0 mm
22:30 -20.9 °C -21.8 °C 34486.4 hPa Calm     88 % 0 mm
22:45 -20.9 °C -21.8 °C 34486.4 hPa Calm     88 % 0 mm
23:00 -20.9 °C -21.9 °C 34496.6 hPa Calm     87 % 0 mm
23:15 -21.2 °C -22.2 °C 34496.6 hPa Calm     87 % 0 mm
23:30 -21.4 °C -22.3 °C 34496.6 hPa Calm     89 % 0 mm
23:45 -21.6 °C -22.4 °C 34496.6 hPa Calm     90 % 0 mm
Esan sääasema
Terveisin Weather Underground - 2.75 mb

Alkuperäinen skripti  Jim McMurry - jmcmurry@mwt.net Sovitettu myös templatelle  Wim van der Kuil - Leuven-Template.eu

Laitteet joita käytämme:

Sääasema
Davis VP2

Sääasemaohjelma
Cumulus

Sääaseman tietokone
Asus EeePC

Palveluntarjoaja
Suncomet

Davis VP2

Cumulus

Asus EeePC

Suncomet